createdAt,value
2023-04-27T00:00:42.774Z,46.02
2023-04-27T00:03:09.565Z,46.14
2023-04-27T00:05:39.382Z,46.45
2023-04-27T00:08:07.017Z,46.32
2023-04-27T00:10:33.718Z,46.72
2023-04-27T00:13:01.741Z,46.54
2023-04-27T00:15:29.334Z,47.45
2023-04-27T00:17:57.510Z,46.88
2023-04-27T00:20:24.095Z,47.57
2023-04-27T00:22:50.679Z,47.33
2023-04-27T00:25:17.205Z,47.90
2023-04-27T00:27:43.684Z,47.68
2023-04-27T00:30:10.978Z,47.83
2023-04-27T00:32:37.531Z,47.50
2023-04-27T00:35:04.320Z,47.27
2023-04-27T00:37:30.984Z,47.88
2023-04-27T00:39:57.503Z,47.51
2023-04-27T00:42:25.093Z,47.05
2023-04-27T00:44:51.611Z,47.35
2023-04-27T00:47:18.216Z,48.01
2023-04-27T00:49:44.888Z,47.05
2023-04-27T00:52:11.716Z,47.89
2023-04-27T00:54:38.910Z,46.94
2023-04-27T00:57:05.709Z,47.06
2023-04-27T00:59:32.268Z,46.98
2023-04-27T01:01:59.819Z,46.76
2023-04-27T01:04:27.113Z,46.19
2023-04-27T01:06:53.856Z,46.27
2023-04-27T01:09:21.455Z,46.18
2023-04-27T01:11:47.998Z,45.78
2023-04-27T01:14:15.883Z,45.64
2023-04-27T01:16:42.495Z,45.68
2023-04-27T01:19:09.399Z,45.74
2023-04-27T01:21:35.980Z,45.42
2023-04-27T01:24:05.902Z,45.24
2023-04-27T01:26:32.395Z,45.38
2023-04-27T01:28:59.240Z,45.22
2023-04-27T01:31:25.949Z,45.39
2023-04-27T01:33:52.523Z,45.07
2023-04-27T01:36:19.068Z,45.37
2023-04-27T01:38:45.618Z,45.11
2023-04-27T01:41:12.138Z,45.34
2023-04-27T01:43:38.672Z,45.39
2023-04-27T01:46:13.179Z,45.03
2023-04-27T01:48:41.204Z,45.12
2023-04-27T01:51:07.721Z,45.39
2023-04-27T01:53:34.848Z,45.01
2023-04-27T01:56:01.835Z,45.42
2023-04-27T01:58:28.663Z,45.27
2023-04-27T02:00:55.227Z,45.41
2023-04-27T02:03:22.213Z,45.05
2023-04-27T02:05:49.028Z,45.20
2023-04-27T02:08:15.599Z,45.01
2023-04-27T02:10:42.234Z,45.25
2023-04-27T02:13:09.792Z,45.24
2023-04-27T02:15:36.538Z,44.99
2023-04-27T02:18:03.817Z,45.35
2023-04-27T02:20:31.386Z,45.15
2023-04-27T02:22:58.057Z,45.03
2023-04-27T02:25:24.807Z,45.21
2023-04-27T02:27:51.340Z,45.15
2023-04-27T02:30:18.256Z,45.12
2023-04-27T02:32:46.355Z,45.30
2023-04-27T02:35:13.038Z,45.05
2023-04-27T02:37:39.661Z,44.93
2023-04-27T02:40:07.950Z,45.08
2023-04-27T02:42:34.558Z,45.15
2023-04-27T02:45:01.126Z,45.06
2023-04-27T02:47:27.703Z,44.95
2023-04-27T02:49:54.245Z,44.68
2023-04-27T02:52:20.775Z,45.01
2023-04-27T02:54:47.334Z,45.09
2023-04-27T02:57:13.864Z,45.23
2023-04-27T02:59:40.348Z,44.82
2023-04-27T03:02:07.676Z,45.00
2023-04-27T03:04:34.193Z,44.96
2023-04-27T03:07:00.699Z,44.70
2023-04-27T03:09:27.234Z,44.87
2023-04-27T03:11:53.806Z,45.07
2023-04-27T03:14:20.622Z,44.98
2023-04-27T03:16:47.174Z,45.28
2023-04-27T03:19:13.988Z,45.58
2023-04-27T03:21:40.661Z,45.58
2023-04-27T03:24:07.275Z,45.23
2023-04-27T03:26:33.829Z,45.81
2023-04-27T03:29:00.963Z,45.79
2023-04-27T03:31:27.589Z,46.30
2023-04-27T03:33:54.102Z,45.76
2023-04-27T03:36:20.912Z,46.25
2023-04-27T03:38:47.460Z,46.13
2023-04-27T03:41:13.968Z,46.59
2023-04-27T03:43:40.517Z,46.40
2023-04-27T03:46:07.096Z,46.35
2023-04-27T03:48:33.663Z,46.58
2023-04-27T03:51:01.195Z,47.09
2023-04-27T03:53:27.703Z,47.26
2023-04-27T03:55:54.220Z,47.05
2023-04-27T03:58:20.761Z,47.78
2023-04-27T04:00:47.260Z,47.05
2023-04-27T04:03:14.093Z,47.71
2023-04-27T04:05:40.864Z,47.48
2023-04-27T04:08:07.401Z,48.10
2023-04-27T04:10:33.887Z,46.89
2023-04-27T04:13:00.493Z,46.85
2023-04-27T04:15:26.972Z,46.85
2023-04-27T04:17:53.604Z,46.85
2023-04-27T04:20:20.211Z,46.41
2023-04-27T04:22:46.754Z,46.55
2023-04-27T04:25:13.301Z,46.14
2023-04-27T04:27:40.763Z,46.44
2023-04-27T04:30:08.272Z,46.26
2023-04-27T04:32:37.750Z,45.86
2023-04-27T04:35:06.009Z,45.55
2023-04-27T04:37:34.758Z,45.64
2023-04-27T04:40:08.776Z,45.45
2023-04-27T04:42:37.480Z,45.60
2023-04-27T04:45:04.433Z,45.43
2023-04-27T04:47:34.226Z,45.31
2023-04-27T04:50:01.143Z,45.56
2023-04-27T04:52:27.716Z,45.52
2023-04-27T04:54:54.532Z,45.55
2023-04-27T04:57:21.276Z,45.45
2023-04-27T04:59:47.813Z,45.60
2023-04-27T05:02:14.481Z,45.66
2023-04-27T05:04:41.107Z,45.97
2023-04-27T05:07:07.774Z,46.13
2023-04-27T05:09:34.365Z,46.44
2023-04-27T05:12:04.531Z,45.86
2023-04-27T05:14:31.115Z,46.33
2023-04-27T05:16:57.756Z,46.55
2023-04-27T05:19:25.264Z,46.29
2023-04-27T05:21:51.888Z,46.63
2023-04-27T05:24:18.446Z,46.63
2023-04-27T05:26:45.017Z,46.77
2023-04-27T05:29:11.742Z,46.42
2023-04-27T05:31:38.425Z,46.48
2023-04-27T05:34:05.004Z,45.83
2023-04-27T05:36:32.142Z,45.75
2023-04-27T05:38:58.669Z,46.54
2023-04-27T05:41:25.275Z,45.76
2023-04-27T05:43:51.890Z,46.11
2023-04-27T05:46:18.498Z,46.01
2023-04-27T05:48:45.045Z,45.86
2023-04-27T05:51:11.687Z,45.84
2023-04-27T05:53:38.282Z,45.79
2023-04-27T05:56:06.716Z,45.77
2023-04-27T05:58:33.934Z,45.63
2023-04-27T06:01:01.681Z,45.62
2023-04-27T06:03:29.436Z,45.29
2023-04-27T06:05:58.893Z,44.91
2023-04-27T06:08:26.216Z,45.27
2023-04-27T06:10:53.704Z,45.12
2023-04-27T06:13:20.455Z,45.42
2023-04-27T06:15:47.423Z,45.65
2023-04-27T06:18:14.368Z,45.31
2023-04-27T06:20:41.928Z,46.03
2023-04-27T06:23:08.699Z,45.62
2023-04-27T06:25:37.468Z,46.15
2023-04-27T06:28:04.324Z,45.77
2023-04-27T06:30:30.932Z,45.74
2023-04-27T06:32:57.522Z,45.35
2023-04-27T06:35:24.100Z,45.87
2023-04-27T06:37:51.306Z,46.14
2023-04-27T06:40:17.934Z,45.95
2023-04-27T06:42:44.513Z,46.27
2023-04-27T06:45:11.789Z,46.12
2023-04-27T06:47:38.449Z,46.48
2023-04-27T06:50:05.591Z,45.97
2023-04-27T06:52:33.497Z,45.73
2023-04-27T06:55:00.043Z,46.23
2023-04-27T06:57:26.863Z,45.85
2023-04-27T06:59:53.493Z,45.65
2023-04-27T07:02:20.098Z,45.66
2023-04-27T07:04:47.107Z,45.62
2023-04-27T07:07:13.933Z,45.61
2023-04-27T07:09:40.595Z,45.43
2023-04-27T07:12:07.235Z,44.94
2023-04-27T07:14:33.968Z,45.10
2023-04-27T07:17:00.605Z,44.92
2023-04-27T07:19:27.162Z,44.99
2023-04-27T07:21:53.769Z,44.63
2023-04-27T07:24:20.831Z,44.35
2023-04-27T07:26:48.078Z,44.28
2023-04-27T07:29:26.104Z,44.26
2023-04-27T07:31:54.515Z,44.30
2023-04-27T07:34:21.111Z,43.71
2023-04-27T07:36:47.741Z,43.99
2023-04-27T07:39:15.022Z,44.08
2023-04-27T07:41:41.694Z,44.14
2023-04-27T07:44:08.296Z,44.20
2023-04-27T07:46:34.838Z,44.33
2023-04-27T07:49:02.447Z,43.79
2023-04-27T07:51:29.252Z,44.27
2023-04-27T07:53:56.328Z,43.72
2023-04-27T07:56:22.914Z,43.70
2023-04-27T07:58:49.458Z,43.79
2023-04-27T08:01:16.886Z,43.91
2023-04-27T08:03:44.411Z,43.56
2023-04-27T08:06:11.594Z,43.83
2023-04-27T08:08:38.642Z,43.80
2023-04-27T08:11:05.238Z,43.62
2023-04-27T08:13:33.845Z,43.71
2023-04-27T08:16:00.547Z,43.70
2023-04-27T08:18:27.292Z,43.63
2023-04-27T08:20:54.543Z,43.54
2023-04-27T08:23:21.406Z,43.51
2023-04-27T08:25:48.555Z,43.71
2023-04-27T08:28:15.441Z,43.79
2023-04-27T08:30:42.751Z,43.77
2023-04-27T08:33:09.444Z,43.67
2023-04-27T08:35:36.433Z,44.31
2023-04-27T08:38:02.976Z,43.60
2023-04-27T08:40:29.556Z,44.53
2023-04-27T08:42:58.609Z,44.35
2023-04-27T08:45:26.868Z,44.22
2023-04-27T08:47:53.937Z,45.04
2023-04-27T08:50:20.563Z,44.50
2023-04-27T08:52:48.393Z,44.20
2023-04-27T08:55:16.625Z,43.99
2023-04-27T08:57:54.102Z,44.26
2023-04-27T09:00:21.127Z,43.53
2023-04-27T09:02:48.948Z,43.63
2023-04-27T09:05:19.784Z,43.66
2023-04-27T09:07:56.990Z,44.40
2023-04-27T09:10:23.913Z,43.95
2023-04-27T09:13:01.067Z,44.88
2023-04-27T09:15:28.808Z,44.19
2023-04-27T09:17:56.847Z,44.46
2023-04-27T09:20:24.124Z,44.74
2023-04-27T09:22:58.091Z,44.49
2023-04-27T09:25:31.422Z,44.79
2023-04-27T09:27:59.277Z,44.23
2023-04-27T09:30:26.572Z,44.79
2023-04-27T09:32:57.895Z,44.50
2023-04-27T09:35:32.105Z,43.97
2023-04-27T09:38:00.669Z,43.89
2023-04-27T09:40:31.299Z,44.15
2023-04-27T09:43:03.376Z,44.21
2023-04-27T09:45:30.487Z,43.95
2023-04-27T09:47:58.263Z,44.14
2023-04-27T09:50:24.830Z,44.42
2023-04-27T09:52:51.496Z,44.25
2023-04-27T09:55:24.564Z,43.63
2023-04-27T09:58:03.610Z,44.04
2023-04-27T10:00:42.635Z,43.84
2023-04-27T10:03:23.396Z,43.42
2023-04-27T10:06:17.627Z,43.45
2023-04-27T10:08:45.437Z,43.84
2023-04-27T10:11:17.104Z,43.34
2023-04-27T10:13:55.873Z,43.49
2023-04-27T10:16:22.556Z,43.63
2023-04-27T10:18:55.283Z,43.94
2023-04-27T10:21:22.727Z,43.85
2023-04-27T10:23:51.232Z,43.86
2023-04-27T10:26:28.247Z,43.54
2023-04-27T10:29:08.468Z,43.63
2023-04-27T10:31:35.703Z,43.48
2023-04-27T10:34:09.973Z,43.56
2023-04-27T10:36:38.072Z,43.35
2023-04-27T10:39:18.485Z,43.27
2023-04-27T10:41:56.251Z,42.77
2023-04-27T10:44:30.743Z,42.74
2023-04-27T10:47:02.117Z,43.04
2023-04-27T10:49:29.647Z,42.89
2023-04-27T10:51:58.968Z,42.96
2023-04-27T10:54:28.351Z,42.62
2023-04-27T10:57:02.387Z,43.05
2023-04-27T10:59:28.881Z,42.38
2023-04-27T11:01:55.823Z,42.25
2023-04-27T11:04:22.666Z,42.65
2023-04-27T11:06:50.221Z,42.13
2023-04-27T11:09:27.573Z,41.69
2023-04-27T11:11:54.182Z,42.19
2023-04-27T11:14:23.825Z,41.84
2023-04-27T11:16:53.519Z,41.28
2023-04-27T11:19:20.249Z,41.14
2023-04-27T11:21:46.924Z,41.72
2023-04-27T11:24:15.340Z,40.97
2023-04-27T11:26:42.168Z,41.08
2023-04-27T11:29:14.272Z,41.27
2023-04-27T11:31:41.202Z,41.23
2023-04-27T11:34:08.229Z,41.15
2023-04-27T11:36:34.760Z,41.02
2023-04-27T11:39:01.502Z,40.70
2023-04-27T11:41:37.490Z,40.69
2023-04-27T11:44:09.041Z,41.13
2023-04-27T11:46:38.990Z,41.06
2023-04-27T11:49:08.723Z,40.64
2023-04-27T11:51:36.422Z,40.70
2023-04-27T11:54:04.668Z,40.42
2023-04-27T11:56:36.346Z,40.56
2023-04-27T11:59:03.739Z,40.30
2023-04-27T12:01:38.229Z,40.54
2023-04-27T12:04:05.339Z,40.29
2023-04-27T12:06:33.744Z,40.90
2023-04-27T12:09:00.912Z,40.57
2023-04-27T12:11:27.840Z,40.34
2023-04-27T12:13:55.147Z,40.55
2023-04-27T12:16:22.694Z,40.58
2023-04-27T12:18:52.449Z,40.39
2023-04-27T12:21:19.085Z,40.31
2023-04-27T12:23:45.861Z,39.98
2023-04-27T12:26:15.217Z,40.25
2023-04-27T12:28:42.063Z,40.04
2023-04-27T12:31:08.766Z,39.74
2023-04-27T12:33:35.673Z,39.89
2023-04-27T12:36:02.375Z,39.78
2023-04-27T12:38:29.222Z,39.92
2023-04-27T12:40:56.292Z,39.78
2023-04-27T12:43:22.880Z,39.40
2023-04-27T12:45:49.464Z,39.28
2023-04-27T12:48:17.658Z,39.61
2023-04-27T12:50:44.598Z,39.44
2023-04-27T12:53:11.475Z,39.92
2023-04-27T12:55:38.093Z,39.32
2023-04-27T12:58:07.619Z,39.05
2023-04-27T13:00:34.587Z,39.19
2023-04-27T13:03:01.366Z,39.21
2023-04-27T13:05:30.390Z,39.23
2023-04-27T13:07:58.420Z,38.98
2023-04-27T13:10:25.002Z,38.91
2023-04-27T13:12:51.526Z,39.34
2023-04-27T13:15:18.225Z,39.64
2023-04-27T13:17:44.809Z,39.44
2023-04-27T13:20:12.046Z,38.80
2023-04-27T13:22:40.615Z,38.72
2023-04-27T13:25:08.386Z,39.11
2023-04-27T13:27:35.638Z,38.92
2023-04-27T13:30:02.223Z,39.06
2023-04-27T13:32:28.825Z,39.60
2023-04-27T13:34:55.371Z,39.44
2023-04-27T13:37:22.099Z,39.21
2023-04-27T13:39:48.660Z,39.21
2023-04-27T13:42:15.201Z,38.71
2023-04-27T13:44:41.773Z,39.33
2023-04-27T13:47:08.382Z,38.81
2023-04-27T13:49:34.908Z,39.31
2023-04-27T13:52:01.601Z,38.72
2023-04-27T13:54:28.661Z,39.17
2023-04-27T13:56:55.238Z,39.30
2023-04-27T13:59:21.838Z,38.80
2023-04-27T14:01:48.503Z,38.86
2023-04-27T14:04:15.295Z,38.64
2023-04-27T14:06:41.969Z,38.10
2023-04-27T14:09:09.280Z,38.59
2023-04-27T14:11:45.358Z,38.75
2023-04-27T14:14:19.232Z,38.34
2023-04-27T14:16:46.465Z,38.66
2023-04-27T14:19:16.001Z,37.95
2023-04-27T14:21:42.803Z,38.20
2023-04-27T14:24:09.301Z,37.85
2023-04-27T14:26:35.890Z,38.25
2023-04-27T14:29:02.385Z,37.76
2023-04-27T14:31:29.605Z,38.07
2023-04-27T14:33:59.265Z,37.76
2023-04-27T14:36:25.878Z,38.02
2023-04-27T14:38:52.422Z,37.69
2023-04-27T14:41:18.900Z,37.40
2023-04-27T14:43:46.996Z,37.68
2023-04-27T14:46:20.773Z,37.06
2023-04-27T14:48:48.390Z,37.14
2023-04-27T14:51:15.487Z,37.78
2023-04-27T14:53:42.537Z,37.76
2023-04-27T14:56:09.086Z,37.74
2023-04-27T14:58:35.596Z,37.64
2023-04-27T15:01:02.341Z,37.98
2023-04-27T15:03:29.025Z,37.39
2023-04-27T15:05:55.928Z,37.57
2023-04-27T15:08:22.702Z,37.56
2023-04-27T15:10:49.261Z,37.76
2023-04-27T15:13:16.083Z,37.30
2023-04-27T15:15:45.541Z,36.92
2023-04-27T15:18:12.384Z,37.10
2023-04-27T15:20:38.990Z,37.12
2023-04-27T15:23:05.530Z,36.84
2023-04-27T15:25:32.068Z,36.43
2023-04-27T15:27:59.441Z,36.63
2023-04-27T15:30:26.002Z,36.31
2023-04-27T15:32:52.595Z,37.13
2023-04-27T15:35:19.212Z,37.04
2023-04-27T15:37:45.813Z,36.80
2023-04-27T15:40:12.517Z,36.18
2023-04-27T15:42:39.079Z,36.55
2023-04-27T15:45:08.003Z,36.48
2023-04-27T15:47:36.130Z,36.21
2023-04-27T15:50:02.880Z,36.68
2023-04-27T15:52:29.407Z,36.30
2023-04-27T15:54:56.124Z,36.46
2023-04-27T15:57:22.709Z,36.14
2023-04-27T15:59:49.476Z,36.46
2023-04-27T16:02:16.321Z,36.39
2023-04-27T16:04:42.950Z,36.72
2023-04-27T16:07:09.492Z,36.77
2023-04-27T16:09:36.710Z,36.85
2023-04-27T16:12:03.894Z,36.74
2023-04-27T16:14:30.554Z,36.83
2023-04-27T16:17:00.793Z,36.84
2023-04-27T16:19:27.467Z,37.05
2023-04-27T16:21:54.293Z,37.43
2023-04-27T16:24:21.247Z,37.08
2023-04-27T16:26:48.065Z,36.84
2023-04-27T16:29:14.759Z,37.16
2023-04-27T16:31:42.984Z,37.04
2023-04-27T16:34:09.646Z,36.87
2023-04-27T16:36:36.511Z,37.03
2023-04-27T16:39:04.963Z,37.46
2023-04-27T16:41:31.687Z,37.67
2023-04-27T16:43:58.298Z,37.81
2023-04-27T16:46:24.868Z,37.87
2023-04-27T16:48:51.476Z,38.29
2023-04-27T16:51:18.076Z,37.87
2023-04-27T16:53:44.648Z,38.07
2023-04-27T16:56:13.447Z,38.32
2023-04-27T16:58:40.977Z,38.62
2023-04-27T17:01:07.869Z,38.66
2023-04-27T17:03:36.086Z,38.38
2023-04-27T17:06:03.163Z,39.36
2023-04-27T17:08:29.869Z,39.38
2023-04-27T17:10:56.444Z,39.33
2023-04-27T17:13:23.020Z,38.98
2023-04-27T17:15:50.549Z,39.51
2023-04-27T17:18:17.560Z,39.29
2023-04-27T17:20:44.173Z,40.13
2023-04-27T17:23:10.787Z,39.72
2023-04-27T17:25:37.378Z,39.43
2023-04-27T17:28:04.095Z,40.16
2023-04-27T17:30:30.666Z,40.19
2023-04-27T17:32:57.789Z,40.60
2023-04-27T17:35:24.488Z,40.58
2023-04-27T17:37:51.782Z,40.38
2023-04-27T17:40:20.762Z,39.93
2023-04-27T17:42:47.548Z,40.30
2023-04-27T17:45:14.248Z,39.86
2023-04-27T17:47:40.832Z,40.99
2023-04-27T17:50:08.374Z,40.12
2023-04-27T17:52:35.694Z,40.28
2023-04-27T17:55:02.217Z,40.02
2023-04-27T17:57:28.813Z,40.51
2023-04-27T17:59:55.358Z,40.10
2023-04-27T18:02:22.102Z,40.71
2023-04-27T18:04:48.833Z,40.69
2023-04-27T18:07:18.435Z,40.90
2023-04-27T18:09:45.040Z,40.57
2023-04-27T18:12:11.573Z,40.42
2023-04-27T18:14:38.499Z,40.88
2023-04-27T18:17:05.674Z,40.59
2023-04-27T18:19:32.378Z,41.29
2023-04-27T18:21:59.109Z,40.83
2023-04-27T18:24:25.629Z,40.69
2023-04-27T18:26:52.230Z,40.20
2023-04-27T18:29:18.821Z,39.84
2023-04-27T18:31:46.144Z,40.33
2023-04-27T18:34:13.182Z,39.73
2023-04-27T18:36:39.769Z,39.83
2023-04-27T18:39:06.345Z,39.40
2023-04-27T18:41:32.913Z,39.87
2023-04-27T18:44:04.724Z,39.44
2023-04-27T18:46:32.465Z,39.87
2023-04-27T18:48:59.355Z,39.38
2023-04-27T18:51:26.398Z,40.07
2023-04-27T18:53:53.356Z,40.33
2023-04-27T18:56:19.993Z,39.83
2023-04-27T18:58:48.522Z,40.20
2023-04-27T19:01:21.093Z,40.29
2023-04-27T19:03:47.738Z,40.01
2023-04-27T19:06:14.955Z,40.35
2023-04-27T19:08:42.015Z,39.59
2023-04-27T19:11:08.612Z,39.71
2023-04-27T19:13:35.747Z,39.73
2023-04-27T19:16:04.419Z,39.80
2023-04-27T19:18:31.183Z,40.26
2023-04-27T19:20:58.069Z,39.84
2023-04-27T19:23:24.629Z,40.07
2023-04-27T19:25:51.831Z,39.96
2023-04-27T19:28:21.678Z,40.12
2023-04-27T19:30:49.219Z,40.05
2023-04-27T19:33:17.578Z,40.27
2023-04-27T19:35:46.113Z,40.15
2023-04-27T19:38:12.701Z,39.92
2023-04-27T19:40:39.288Z,40.43
2023-04-27T19:43:07.088Z,40.37
2023-04-27T19:45:33.883Z,40.05
2023-04-27T19:48:00.768Z,40.40
2023-04-27T19:50:27.419Z,40.52
2023-04-27T19:52:53.957Z,40.05
2023-04-27T19:55:20.777Z,40.12
2023-04-27T19:57:47.318Z,39.89
2023-04-27T20:00:14.157Z,39.80
2023-04-27T20:02:41.156Z,40.70
2023-04-27T20:05:08.588Z,40.53
2023-04-27T20:07:35.752Z,40.58
2023-04-27T20:10:03.096Z,40.23
2023-04-27T20:15:02.113Z,40.27
2023-04-27T20:17:28.825Z,40.58
2023-04-27T20:19:56.502Z,40.23
2023-04-27T20:22:23.520Z,40.60
2023-04-27T20:24:50.965Z,41.02
2023-04-27T20:27:17.668Z,40.60
2023-04-27T20:29:46.477Z,40.58
2023-04-27T20:32:13.240Z,41.03
2023-04-27T20:34:39.848Z,41.21
2023-04-27T20:37:07.790Z,41.24
2023-04-27T20:39:35.040Z,40.90
2023-04-27T20:42:01.595Z,41.05
2023-04-27T20:44:28.153Z,40.65
2023-04-27T20:46:54.687Z,40.64
2023-04-27T20:49:32.137Z,40.94
2023-04-27T20:52:01.818Z,40.88
2023-04-27T20:54:28.451Z,40.77
2023-04-27T20:56:54.995Z,40.70
2023-04-27T20:59:21.567Z,41.00
2023-04-27T21:01:48.118Z,40.52
2023-04-27T21:04:15.062Z,40.56
2023-04-27T21:06:41.792Z,41.13
2023-04-27T21:09:08.486Z,41.21
2023-04-27T21:11:35.300Z,40.27
2023-04-27T21:14:01.996Z,40.58
2023-04-27T21:16:28.554Z,41.32
2023-04-27T21:18:55.119Z,40.75
2023-04-27T21:21:22.190Z,41.21
2023-04-27T21:23:54.390Z,41.10
2023-04-27T21:26:27.429Z,40.73
2023-04-27T21:28:53.959Z,40.96
2023-04-27T21:31:20.879Z,41.06
2023-04-27T21:33:47.501Z,40.70
2023-04-27T21:36:14.042Z,40.92
2023-04-27T21:38:40.610Z,40.81
2023-04-27T21:41:07.451Z,41.30
2023-04-27T21:43:34.036Z,41.39
2023-04-27T21:46:00.670Z,40.78
2023-04-27T21:48:27.307Z,40.99
2023-04-27T21:50:53.835Z,40.88
2023-04-27T21:53:20.333Z,40.77
2023-04-27T21:55:46.905Z,41.04
2023-04-27T21:58:13.549Z,40.86
2023-04-27T22:00:40.180Z,40.92
2023-04-27T22:03:06.878Z,41.08
2023-04-27T22:05:33.554Z,41.49
2023-04-27T22:08:00.152Z,41.02
2023-04-27T22:10:27.068Z,40.69
2023-04-27T22:12:53.618Z,40.70
2023-04-27T22:15:21.143Z,41.21
2023-04-27T22:17:47.726Z,41.59
2023-04-27T22:20:14.495Z,40.85
2023-04-27T22:22:41.278Z,41.21
2023-04-27T22:25:08.289Z,41.08
2023-04-27T22:27:41.971Z,40.90
2023-04-27T22:30:11.513Z,41.14
2023-04-27T22:32:38.126Z,41.50
2023-04-27T22:35:06.999Z,40.90
2023-04-27T22:37:37.252Z,40.74
2023-04-27T22:40:05.901Z,40.91
2023-04-27T22:42:32.495Z,41.29
2023-04-27T22:44:58.977Z,41.23
2023-04-27T22:47:25.576Z,41.06
2023-04-27T22:49:54.562Z,41.13
2023-04-27T22:52:21.871Z,41.31
2023-04-27T22:54:48.380Z,40.98
2023-04-27T22:57:14.961Z,41.17
2023-04-27T22:59:41.612Z,41.05
2023-04-27T23:02:08.208Z,41.17
2023-04-27T23:04:34.788Z,40.93
2023-04-27T23:07:01.414Z,41.31
2023-04-27T23:09:28.021Z,41.07
2023-04-27T23:11:54.850Z,41.22
2023-04-27T23:14:21.416Z,41.19
2023-04-27T23:16:47.969Z,41.21
2023-04-27T23:19:14.590Z,41.52
2023-04-27T23:21:41.285Z,40.94
2023-04-27T23:24:07.818Z,41.18
2023-04-27T23:26:34.323Z,41.16
2023-04-27T23:29:00.864Z,41.27
2023-04-27T23:31:27.641Z,41.28
2023-04-27T23:33:54.239Z,40.96
2023-04-27T23:36:21.080Z,41.30
2023-04-27T23:38:47.652Z,41.15
2023-04-27T23:41:14.201Z,41.33
2023-04-27T23:43:40.800Z,40.90
2023-04-27T23:46:07.371Z,41.31
2023-04-27T23:48:33.989Z,41.28
2023-04-27T23:51:04.478Z,41.40
2023-04-27T23:53:31.551Z,41.42
2023-04-27T23:55:58.121Z,41.42
2023-04-27T23:58:26.062Z,41.63
